sensor_id;sensor_type;location;lat;lon;timestamp;pressure;altitude;pressure_sealevel;temperature;humidity
47374;BME280;33123;50.118;10.272;2023-02-22T00:01:40;97673.63;;;7.60;72.42
47374;BME280;33123;50.118;10.272;2023-02-22T00:04:15;97676.72;;;7.57;73.59
47374;BME280;33123;50.118;10.272;2023-02-22T00:06:47;97671.50;;;7.57;73.84
47374;BME280;33123;50.118;10.272;2023-02-22T00:09:15;97672.28;;;7.58;74.23
47374;BME280;33123;50.118;10.272;2023-02-22T00:11:45;97666.00;;;7.59;74.72
47374;BME280;33123;50.118;10.272;2023-02-22T00:14:12;97668.63;;;7.59;75.50
47374;BME280;33123;50.118;10.272;2023-02-22T00:16:39;97661.78;;;7.58;74.30
47374;BME280;33123;50.118;10.272;2023-02-22T00:19:05;97658.13;;;7.59;74.20
47374;BME280;33123;50.118;10.272;2023-02-22T00:21:32;97658.59;;;7.56;74.12
47374;BME280;33123;50.118;10.272;2023-02-22T00:24:00;97661.00;;;7.57;74.34
47374;BME280;33123;50.118;10.272;2023-02-22T00:26:41;97658.59;;;7.56;74.58
47374;BME280;33123;50.118;10.272;2023-02-22T00:29:07;97664.66;;;7.56;74.54
47374;BME280;33123;50.118;10.272;2023-02-22T00:31:36;97658.59;;;7.56;74.85
47374;BME280;33123;50.118;10.272;2023-02-22T00:34:03;97659.59;;;7.55;75.16
47374;BME280;33123;50.118;10.272;2023-02-22T00:36:30;97664.28;;;7.53;74.16
47374;BME280;33123;50.118;10.272;2023-02-22T00:38:56;97664.28;;;7.53;74.52
47374;BME280;33123;50.118;10.272;2023-02-22T00:41:24;97661.91;;;7.51;73.89
47374;BME280;33123;50.118;10.272;2023-02-22T00:43:51;97663.13;;;7.49;73.69
47374;BME280;33123;50.118;10.272;2023-02-22T00:46:17;97660.19;;;7.45;73.40
47374;BME280;33123;50.118;10.272;2023-02-22T00:48:44;97655.97;;;7.44;73.51
47374;BME280;33123;50.118;10.272;2023-02-22T00:51:10;97654.59;;;7.41;73.85
47374;BME280;33123;50.118;10.272;2023-02-22T00:53:37;97657.69;;;7.38;73.17
47374;BME280;33123;50.118;10.272;2023-02-22T00:56:04;97648.44;;;7.36;73.30
47374;BME280;33123;50.118;10.272;2023-02-22T00:58:32;97644.88;;;7.30;73.83
47374;BME280;33123;50.118;10.272;2023-02-22T01:00:59;97648.53;;;7.29;73.56
47374;BME280;33123;50.118;10.272;2023-02-22T01:03:26;97645.31;;;7.27;73.63
47374;BME280;33123;50.118;10.272;2023-02-22T01:05:52;97646.34;;;7.26;74.03
47374;BME280;33123;50.118;10.272;2023-02-22T01:08:19;97640.78;;;7.23;74.20
47374;BME280;33123;50.118;10.272;2023-02-22T01:10:46;97646.22;;;7.21;74.67
47374;BME280;33123;50.118;10.272;2023-02-22T01:13:13;97646.03;;;7.23;73.96
47374;BME280;33123;50.118;10.272;2023-02-22T01:15:41;97640.00;;;7.22;73.75
47374;BME280;33123;50.118;10.272;2023-02-22T01:18:10;97646.22;;;7.21;73.77
47374;BME280;33123;50.118;10.272;2023-02-22T01:20:37;97643.03;;;7.19;73.59
47374;BME280;33123;50.118;10.272;2023-02-22T01:23:05;97635.41;;;7.18;73.40
47374;BME280;33123;50.118;10.272;2023-02-22T01:25:33;97617.50;;;7.03;74.36
47374;BME280;33123;50.118;10.272;2023-02-22T01:28:00;97640.44;;;7.19;75.66
47374;BME280;33123;50.118;10.272;2023-02-22T01:30:34;97630.31;;;7.23;75.85
47374;BME280;33123;50.118;10.272;2023-02-22T01:33:05;97633.25;;;7.26;76.16
47374;BME280;33123;50.118;10.272;2023-02-22T01:35:35;97605.06;;;7.10;75.79
47374;BME280;33123;50.118;10.272;2023-02-22T01:38:03;97630.75;;;7.31;75.40
47374;BME280;33123;50.118;10.272;2023-02-22T01:40:31;97625.19;;;7.28;75.14
47374;BME280;33123;50.118;10.272;2023-02-22T01:43:15;97630.44;;;7.28;74.80
47374;BME280;33123;50.118;10.272;2023-02-22T01:45:47;97625.97;;;7.28;73.99
47374;BME280;33123;50.118;10.272;2023-02-22T01:48:20;97625.19;;;7.28;74.05
47374;BME280;33123;50.118;10.272;2023-02-22T01:50:52;97625.25;;;7.21;73.27
47374;BME280;33123;50.118;10.272;2023-02-22T01:53:24;97595.50;;;7.04;73.00
47374;BME280;33123;50.118;10.272;2023-02-22T01:55:54;97616.28;;;7.17;72.71
47374;BME280;33123;50.118;10.272;2023-02-22T01:58:22;97611.94;;;7.11;72.24
47374;BME280;33123;50.118;10.272;2023-02-22T02:00:49;97616.59;;;7.09;72.53
47374;BME280;33123;50.118;10.272;2023-02-22T02:03:20;97607.00;;;7.03;72.39
47374;BME280;33123;50.118;10.272;2023-02-22T02:05:48;97604.50;;;6.96;72.20
47374;BME280;33123;50.118;10.272;2023-02-22T02:08:25;97607.78;;;6.92;72.74
47374;BME280;33123;50.118;10.272;2023-02-22T02:10:55;97603.00;;;6.88;73.36
47374;BME280;33123;50.118;10.272;2023-02-22T02:13:23;97596.84;;;6.83;73.24
47374;BME280;33123;50.118;10.272;2023-02-22T02:15:52;97593.41;;;6.82;73.08
47374;BME280;33123;50.118;10.272;2023-02-22T02:18:21;97593.41;;;6.82;73.30
47374;BME280;33123;50.118;10.272;2023-02-22T02:24:37;97588.50;;;6.74;72.48
47374;BME280;33123;50.118;10.272;2023-02-22T02:27:18;97583.91;;;6.70;72.86
47374;BME280;33123;50.118;10.272;2023-02-22T02:30:12;97587.78;;;6.67;72.87
47374;BME280;33123;50.118;10.272;2023-02-22T02:32:51;97583.78;;;6.65;73.47
47374;BME280;33123;50.118;10.272;2023-02-22T02:35:24;97575.38;;;6.63;72.92
47374;BME280;33123;50.118;10.272;2023-02-22T02:37:58;97578.22;;;6.61;73.09
47374;BME280;33123;50.118;10.272;2023-02-22T02:40:31;97577.38;;;6.60;73.30
47374;BME280;33123;50.118;10.272;2023-02-22T02:43:08;97577.63;;;6.59;73.52
47374;BME280;33123;50.118;10.272;2023-02-22T02:45:41;97573.41;;;6.58;74.10
47374;BME280;33123;50.118;10.272;2023-02-22T02:48:11;97569.44;;;6.55;73.97
47374;BME280;33123;50.118;10.272;2023-02-22T02:50:43;97567.59;;;6.56;73.76
47374;BME280;33123;50.118;10.272;2023-02-22T02:53:12;97569.63;;;6.54;73.20
47374;BME280;33123;50.118;10.272;2023-02-22T02:55:41;97567.47;;;6.51;74.31
47374;BME280;33123;50.118;10.272;2023-02-22T02:58:15;97570.91;;;6.51;74.48
47374;BME280;33123;50.118;10.272;2023-02-22T03:00:42;97562.25;;;6.51;74.25
47374;BME280;33123;50.118;10.272;2023-02-22T03:03:22;97565.88;;;6.50;74.36
47374;BME280;33123;50.118;10.272;2023-02-22T03:06:08;97566.69;;;6.50;74.79
47374;BME280;33123;50.118;10.272;2023-02-22T03:08:40;97558.22;;;6.48;74.58
47374;BME280;33123;50.118;10.272;2023-02-22T03:11:11;97554.03;;;6.47;73.81
47374;BME280;33123;50.118;10.272;2023-02-22T03:13:47;97565.16;;;6.43;74.15
47374;BME280;33123;50.118;10.272;2023-02-22T03:16:20;97550.72;;;6.40;73.52
47374;BME280;33123;50.118;10.272;2023-02-22T03:18:55;97557.16;;;6.38;73.77
47374;BME280;33123;50.118;10.272;2023-02-22T03:21:30;97552.41;;;6.34;73.64
47374;BME280;33123;50.118;10.272;2023-02-22T03:24:04;97544.97;;;6.31;73.44
47374;BME280;33123;50.118;10.272;2023-02-22T03:26:34;97542.03;;;6.28;73.72
47374;BME280;33123;50.118;10.272;2023-02-22T03:29:05;97540.41;;;6.27;73.63
47374;BME280;33123;50.118;10.272;2023-02-22T03:31:37;97546.88;;;6.24;73.87
47374;BME280;33123;50.118;10.272;2023-02-22T03:34:10;97546.31;;;6.22;74.17
47374;BME280;33123;50.118;10.272;2023-02-22T03:36:42;97548.09;;;6.22;74.48
47374;BME280;33123;50.118;10.272;2023-02-22T03:39:13;97541.75;;;6.18;74.26
47374;BME280;33123;50.118;10.272;2023-02-22T03:41:44;97530.69;;;6.16;74.21
47374;BME280;33123;50.118;10.272;2023-02-22T03:44:19;97541.38;;;6.14;74.20
47374;BME280;33123;50.118;10.272;2023-02-22T03:46:50;97545.03;;;6.13;73.83
47374;BME280;33123;50.118;10.272;2023-02-22T03:49:29;97536.59;;;6.11;74.18
47374;BME280;33123;50.118;10.272;2023-02-22T03:52:00;97542.81;;;6.10;73.82
47374;BME280;33123;50.118;10.272;2023-02-22T03:54:27;97530.22;;;6.07;73.94
47374;BME280;33123;50.118;10.272;2023-02-22T03:56:56;97532.22;;;6.05;74.42
47374;BME280;33123;50.118;10.272;2023-02-22T03:59:25;97537.47;;;6.05;74.80
47374;BME280;33123;50.118;10.272;2023-02-22T04:01:52;97528.81;;;6.04;75.37
47374;BME280;33123;50.118;10.272;2023-02-22T04:04:19;97529.59;;;6.05;75.27
47374;BME280;33123;50.118;10.272;2023-02-22T04:06:49;97533.84;;;6.06;75.07
47374;BME280;33123;50.118;10.272;2023-02-22T04:09:17;97528.81;;;6.04;74.80
47374;BME280;33123;50.118;10.272;2023-02-22T04:11:44;97503.47;;;5.87;74.96
47374;BME280;33123;50.118;10.272;2023-02-22T04:14:12;97529.03;;;6.03;75.01
47374;BME280;33123;50.118;10.272;2023-02-22T04:16:38;97525.63;;;6.02;75.16
47374;BME280;33123;50.118;10.272;2023-02-22T04:19:05;97514.09;;;5.92;75.63
47374;BME280;33123;50.118;10.272;2023-02-22T04:21:32;97533.47;;;6.02;75.28
47374;BME280;33123;50.118;10.272;2023-02-22T04:24:00;97529.03;;;6.03;75.24
47374;BME280;33123;50.118;10.272;2023-02-22T04:26:26;97526.44;;;6.03;75.42
47374;BME280;33123;50.118;10.272;2023-02-22T04:28:53;97526.44;;;6.03;75.82
47374;BME280;33123;50.118;10.272;2023-02-22T04:31:19;97532.22;;;6.05;76.72
47374;BME280;33123;50.118;10.272;2023-02-22T04:33:46;97528.38;;;6.07;76.20
47374;BME280;33123;50.118;10.272;2023-02-22T04:36:13;97520.75;;;6.06;76.32
47374;BME280;33123;50.118;10.272;2023-02-22T04:38:40;97523.81;;;6.03;75.39
47374;BME280;33123;50.118;10.272;2023-02-22T04:41:08;97515.41;;;6.01;75.62
47374;BME280;33123;50.118;10.272;2023-02-22T04:43:35;97520.16;;;6.04;76.84
47374;BME280;33123;50.118;10.272;2023-02-22T04:46:02;97513.25;;;6.09;77.84
47374;BME280;33123;50.118;10.272;2023-02-22T04:48:29;97514.78;;;6.17;77.77
47374;BME280;33123;50.118;10.272;2023-02-22T04:54:37;97514.22;;;6.27;76.53
47374;BME280;33123;50.118;10.272;2023-02-22T04:57:05;97509.81;;;6.27;76.41
47374;BME280;33123;50.118;10.272;2023-02-22T04:59:31;97508.19;;;6.26;77.71
47374;BME280;33123;50.118;10.272;2023-02-22T05:01:58;97503.31;;;6.30;77.79
47374;BME280;33123;50.118;10.272;2023-02-22T05:04:26;97496.84;;;6.32;77.15
47374;BME280;33123;50.118;10.272;2023-02-22T05:06:52;97507.44;;;6.38;76.51
47374;BME280;33123;50.118;10.272;2023-02-22T05:09:19;97503.22;;;6.37;76.21
47374;BME280;33123;50.118;10.272;2023-02-22T05:11:45;97502.44;;;6.36;76.07
47374;BME280;33123;50.118;10.272;2023-02-22T05:14:13;97502.91;;;6.33;76.16
47374;BME280;33123;50.118;10.272;2023-02-22T05:16:40;97506.88;;;6.35;76.25
47374;BME280;33123;50.118;10.272;2023-02-22T05:19:06;97498.00;;;6.37;75.46
47374;BME280;33123;50.118;10.272;2023-02-22T05:21:33;97494.81;;;6.34;75.19
47374;BME280;33123;50.118;10.272;2023-02-22T05:24:00;97496.63;;;6.34;74.71
47374;BME280;33123;50.118;10.272;2023-02-22T05:26:26;97495.84;;;6.33;74.51
47374;BME280;33123;50.118;10.272;2023-02-22T05:28:53;97491.50;;;6.27;73.82
47374;BME280;33123;50.118;10.272;2023-02-22T05:31:21;97488.75;;;6.22;73.93
47374;BME280;33123;50.118;10.272;2023-02-22T05:33:48;97492.69;;;6.13;73.70
47374;BME280;33123;50.118;10.272;2023-02-22T05:36:15;97481.66;;;6.11;73.22
47374;BME280;33123;50.118;10.272;2023-02-22T05:38:41;97484.13;;;6.06;73.02
47374;BME280;33123;50.118;10.272;2023-02-22T05:41:09;97472.44;;;5.90;72.84
47374;BME280;33123;50.118;10.272;2023-02-22T05:43:37;97486.47;;;5.96;72.66
47374;BME280;33123;50.118;10.272;2023-02-22T05:46:04;97490.75;;;5.90;72.17
47374;BME280;33123;50.118;10.272;2023-02-22T05:48:32;97483.56;;;5.86;72.40
47374;BME280;33123;50.118;10.272;2023-02-22T05:50:58;97485.00;;;5.81;72.83
47374;BME280;33123;50.118;10.272;2023-02-22T05:53:25;97482.84;;;5.78;73.19
47374;BME280;33123;50.118;10.272;2023-02-22T05:55:52;97481.13;;;5.72;73.20
47374;BME280;33123;50.118;10.272;2023-02-22T05:58:18;97479.50;;;5.71;73.74
47374;BME280;33123;50.118;10.272;2023-02-22T06:00:45;97482.56;;;5.68;73.66
47374;BME280;33123;50.118;10.272;2023-02-22T06:03:12;97482.56;;;5.68;74.68
47374;BME280;33123;50.118;10.272;2023-02-22T06:05:40;97482.34;;;5.70;74.51
47374;BME280;33123;50.118;10.272;2023-02-22T06:08:07;97484.72;;;5.71;75.46
47374;BME280;33123;50.118;10.272;2023-02-22T06:10:34;97483.28;;;5.75;76.22
47374;BME280;33123;50.118;10.272;2023-02-22T06:13:01;97489.03;;;5.84;77.57
47374;BME280;33123;50.118;10.272;2023-02-22T06:15:29;97481.31;;;5.89;76.99
47374;BME280;33123;50.118;10.272;2023-02-22T06:17:56;97487.50;;;5.95;76.69
47374;BME280;33123;50.118;10.272;2023-02-22T06:20:25;97479.56;;;6.01;78.14
47374;BME280;33123;50.118;10.272;2023-02-22T06:22:55;97487.47;;;6.13;78.80
47374;BME280;33123;50.118;10.272;2023-02-22T06:25:24;97486.34;;;6.21;77.98
47374;BME280;33123;50.118;10.272;2023-02-22T06:27:51;97489.69;;;6.28;78.63
47374;BME280;33123;50.118;10.272;2023-02-22T06:30:20;97487.53;;;6.37;78.20
47374;BME280;33123;50.118;10.272;2023-02-22T06:32:47;97488.00;;;6.45;77.11
47374;BME280;33123;50.118;10.272;2023-02-22T06:35:15;97482.97;;;6.44;77.31
47374;BME280;33123;50.118;10.272;2023-02-22T06:37:42;97489.63;;;6.58;77.42
47374;BME280;33123;50.118;10.272;2023-02-22T06:40:11;97492.72;;;6.67;75.54
47374;BME280;33123;50.118;10.272;2023-02-22T06:42:38;97488.28;;;6.67;72.43
47374;BME280;33123;50.118;10.272;2023-02-22T06:45:06;97499.44;;;6.74;71.31
47374;BME280;33123;50.118;10.272;2023-02-22T06:47:36;97504.91;;;6.73;71.13
47374;BME280;33123;50.118;10.272;2023-02-22T06:50:03;97505.91;;;6.72;69.64
47374;BME280;33123;50.118;10.272;2023-02-22T06:56:12;97502.84;;;6.63;68.63
47374;BME280;33123;50.118;10.272;2023-02-22T06:58:39;97503.28;;;6.60;69.68
47374;BME280;33123;50.118;10.272;2023-02-22T07:01:06;97508.97;;;6.57;69.49
47374;BME280;33123;50.118;10.272;2023-02-22T07:03:33;97506.91;;;6.59;70.13
47374;BME280;33123;50.118;10.272;2023-02-22T07:06:00;97509.66;;;6.52;70.25
47374;BME280;33123;50.118;10.272;2023-02-22T07:08:28;97508.19;;;6.56;70.75
47374;BME280;33123;50.118;10.272;2023-02-22T07:10:55;97489.38;;;6.48;70.41
47374;BME280;33123;50.118;10.272;2023-02-22T07:13:23;97511.97;;;6.72;70.02
47374;BME280;33123;50.118;10.272;2023-02-22T07:15:49;97509.94;;;6.86;69.91
47374;BME280;33123;50.118;10.272;2023-02-22T07:18:16;97512.13;;;7.01;70.14
47374;BME280;33123;50.118;10.272;2023-02-22T07:20:42;97516.78;;;7.22;69.68
47374;BME280;33123;50.118;10.272;2023-02-22T07:23:12;97503.19;;;7.49;69.72
47374;BME280;33123;50.118;10.272;2023-02-22T07:25:39;97504.72;;;7.85;69.55
47374;BME280;33123;50.118;10.272;2023-02-22T07:28:05;97504.66;;;8.25;69.01
47374;BME280;33123;50.118;10.272;2023-02-22T07:30:33;97507.88;;;8.72;68.26
47374;BME280;33123;50.118;10.272;2023-02-22T07:33:01;97506.75;;;9.19;66.85
47374;BME280;33123;50.118;10.272;2023-02-22T07:35:31;97509.25;;;9.69;65.48
47374;BME280;33123;50.118;10.272;2023-02-22T07:37:58;97519.28;;;10.16;63.89
47374;BME280;33123;50.118;10.272;2023-02-22T07:40:26;97511.06;;;10.62;63.22
47374;BME280;33123;50.118;10.272;2023-02-22T07:42:55;97511.69;;;11.06;61.25
47374;BME280;33123;50.118;10.272;2023-02-22T07:45:25;97509.84;;;11.54;60.25
47374;BME280;33123;50.118;10.272;2023-02-22T07:47:53;97511.63;;;11.91;58.75
47374;BME280;33123;50.118;10.272;2023-02-22T07:50:21;97507.75;;;12.13;57.02
47374;BME280;33123;50.118;10.272;2023-02-22T07:52:50;97505.41;;;12.27;56.00
47374;BME280;33123;50.118;10.272;2023-02-22T07:55:19;97510.97;;;12.41;56.02
47374;BME280;33123;50.118;10.272;2023-02-22T07:57:46;97508.34;;;12.56;55.46
47374;BME280;33123;50.118;10.272;2023-02-22T08:00:15;97505.19;;;12.75;55.87
47374;BME280;33123;50.118;10.272;2023-02-22T08:02:48;97511.00;;;12.82;54.66
47374;BME280;33123;50.118;10.272;2023-02-22T08:05:16;97516.28;;;12.92;56.01
47374;BME280;33123;50.118;10.272;2023-02-22T08:07:43;97512.34;;;12.89;55.86
47374;BME280;33123;50.118;10.272;2023-02-22T08:10:10;97512.06;;;12.81;56.61
47374;BME280;33123;50.118;10.272;2023-02-22T08:12:37;97514.69;;;12.71;57.37
47374;BME280;33123;50.118;10.272;2023-02-22T08:15:04;97509.41;;;12.65;57.04
47374;BME280;33123;50.118;10.272;2023-02-22T08:17:31;97504.13;;;12.60;58.06
47374;BME280;33123;50.118;10.272;2023-02-22T08:19:58;97506.22;;;12.53;58.30
47374;BME280;33123;50.118;10.272;2023-02-22T08:22:26;97507.81;;;12.49;58.09
47374;BME280;33123;50.118;10.272;2023-02-22T08:24:53;97514.69;;;12.45;57.37
47374;BME280;33123;50.118;10.272;2023-02-22T08:27:22;97511.25;;;12.39;58.18
47374;BME280;33123;50.118;10.272;2023-02-22T08:29:50;97509.66;;;12.33;58.32
47374;BME280;33123;50.118;10.272;2023-02-22T08:32:17;97505.94;;;12.34;58.26
47374;BME280;33123;50.118;10.272;2023-02-22T08:34:43;97510.44;;;12.39;58.70
47374;BME280;33123;50.118;10.272;2023-02-22T08:37:10;97504.38;;;12.49;58.81
47374;BME280;33123;50.118;10.272;2023-02-22T08:39:38;97508.09;;;12.63;58.90
47374;BME280;33123;50.118;10.272;2023-02-22T08:42:05;97509.16;;;12.77;58.50
47374;BME280;33123;50.118;10.272;2023-02-22T08:44:33;97509.94;;;12.88;58.66
47374;BME280;33123;50.118;10.272;2023-02-22T08:47:00;97505.19;;;12.95;58.01
47374;BME280;33123;50.118;10.272;2023-02-22T08:49:26;97505.44;;;13.19;58.41
47374;BME280;33123;50.118;10.272;2023-02-22T08:51:53;97508.31;;;13.43;57.98
47374;BME280;33123;50.118;10.272;2023-02-22T08:54:19;97507.72;;;13.71;57.96
47374;BME280;33123;50.118;10.272;2023-02-22T08:56:48;97509.44;;;14.02;57.07
47374;BME280;33123;50.118;10.272;2023-02-22T08:59:15;97509.84;;;14.29;57.65
47374;BME280;33123;50.118;10.272;2023-02-22T09:01:42;97499.38;;;14.53;56.30
47374;BME280;33123;50.118;10.272;2023-02-22T09:04:08;97511.38;;;14.79;56.63
47374;BME280;33123;50.118;10.272;2023-02-22T09:06:35;97509.00;;;15.12;56.12
47374;BME280;33123;50.118;10.272;2023-02-22T09:09:02;97509.47;;;15.43;55.84
47374;BME280;33123;50.118;10.272;2023-02-22T09:11:29;97505.50;;;15.70;55.55
47374;BME280;33123;50.118;10.272;2023-02-22T09:13:57;97497.38;;;16.04;54.46
47374;BME280;33123;50.118;10.272;2023-02-22T09:16:24;97499.69;;;16.29;51.84
47374;BME280;33123;50.118;10.272;2023-02-22T09:18:51;97502.00;;;16.55;51.63
47374;BME280;33123;50.118;10.272;2023-02-22T09:21:18;97505.56;;;16.64;51.12
47374;BME280;33123;50.118;10.272;2023-02-22T09:23:46;97504.63;;;16.93;50.79
47374;BME280;33123;50.118;10.272;2023-02-22T09:26:12;97499.84;;;17.08;50.24
47374;BME280;33123;50.118;10.272;2023-02-22T09:28:40;97500.13;;;17.07;49.89
47374;BME280;33123;50.118;10.272;2023-02-22T09:31:08;97498.50;;;17.25;50.06
47374;BME280;33123;50.118;10.272;2023-02-22T09:33:35;97497.44;;;17.39;50.03
47374;BME280;33123;50.118;10.272;2023-02-22T09:36:02;97485.81;;;17.49;49.28
47374;BME280;33123;50.118;10.272;2023-02-22T09:38:31;97494.25;;;17.37;49.09
47374;BME280;33123;50.118;10.272;2023-02-22T09:41:06;97488.25;;;17.46;49.24
47374;BME280;33123;50.118;10.272;2023-02-22T09:43:38;97497.03;;;17.32;49.27
47374;BME280;33123;50.118;10.272;2023-02-22T09:46:20;97490.59;;;17.20;49.57
47374;BME280;33123;50.118;10.272;2023-02-22T09:48:54;97475.34;;;16.93;49.83
47374;BME280;33123;50.118;10.272;2023-02-22T09:51:27;97484.16;;;16.74;50.40
47374;BME280;33123;50.118;10.272;2023-02-22T09:53:58;97482.41;;;16.64;50.76
47374;BME280;33123;50.118;10.272;2023-02-22T09:56:28;97476.22;;;16.69;51.21
47374;BME280;33123;50.118;10.272;2023-02-22T09:59:00;97478.97;;;16.64;51.23
47374;BME280;33123;50.118;10.272;2023-02-22T10:01:33;97476.66;;;16.76;51.45
47374;BME280;33123;50.118;10.272;2023-02-22T10:04:09;97480.66;;;16.93;50.92
47374;BME280;33123;50.118;10.272;2023-02-22T10:06:37;97478.34;;;17.19;50.24
47374;BME280;33123;50.118;10.272;2023-02-22T10:09:08;97475.41;;;17.48;48.96
47374;BME280;33123;50.118;10.272;2023-02-22T10:11:51;97466.44;;;17.99;49.16
47374;BME280;33123;50.118;10.272;2023-02-22T10:14:41;97471.41;;;18.28;47.31
47374;BME280;33123;50.118;10.272;2023-02-22T10:17:18;97471.16;;;18.74;45.95
47374;BME280;33123;50.118;10.272;2023-02-22T10:19:59;97471.22;;;19.14;45.42
47374;BME280;33123;50.118;10.272;2023-02-22T10:26:14;97466.03;;;19.48;44.32
47374;BME280;33123;50.118;10.272;2023-02-22T10:28:45;97464.44;;;19.78;44.04
47374;BME280;33123;50.118;10.272;2023-02-22T10:34:50;97459.09;;;19.78;42.31
47374;BME280;33123;50.118;10.272;2023-02-22T10:37:23;97447.19;;;20.11;41.85
47374;BME280;33123;50.118;10.272;2023-02-22T10:39:54;97443.72;;;20.01;41.24
47374;BME280;33123;50.118;10.272;2023-02-22T10:42:25;97456.03;;;20.63;40.80
47374;BME280;33123;50.118;10.272;2023-02-22T10:44:52;97450.41;;;21.12;41.31
47374;BME280;33123;50.118;10.272;2023-02-22T10:47:19;97450.78;;;20.84;38.95
47374;BME280;33123;50.118;10.272;2023-02-22T10:49:49;97452.88;;;21.34;37.23
47374;BME280;33123;50.118;10.272;2023-02-22T10:52:22;97452.38;;;21.41;37.45
47374;BME280;33123;50.118;10.272;2023-02-22T10:54:50;97439.34;;;21.22;37.79
47374;BME280;33123;50.118;10.272;2023-02-22T10:57:20;97447.00;;;20.85;38.59
47374;BME280;33123;50.118;10.272;2023-02-22T10:59:48;97445.41;;;21.01;38.98
47374;BME280;33123;50.118;10.272;2023-02-22T11:02:18;97439.41;;;21.04;39.13
47374;BME280;33123;50.118;10.272;2023-02-22T11:04:47;97435.38;;;21.28;37.64
47374;BME280;33123;50.118;10.272;2023-02-22T11:07:22;97442.31;;;21.67;37.63
47374;BME280;33123;50.118;10.272;2023-02-22T11:09:51;97432.69;;;21.37;37.38
47374;BME280;33123;50.118;10.272;2023-02-22T11:12:24;97434.13;;;21.64;36.71
47374;BME280;33123;50.118;10.272;2023-02-22T11:14:51;97425.88;;;21.69;37.75
47374;BME280;33123;50.118;10.272;2023-02-22T11:17:25;97425.25;;;21.72;37.61
47374;BME280;33123;50.118;10.272;2023-02-22T11:19:54;97421.25;;;21.48;37.31
47374;BME280;33123;50.118;10.272;2023-02-22T11:22:25;97415.47;;;21.38;37.45
47374;BME280;33123;50.118;10.272;2023-02-22T11:24:57;97419.94;;;20.78;37.34
47374;BME280;33123;50.118;10.272;2023-02-22T11:27:29;97426.63;;;21.01;38.20
47374;BME280;33123;50.118;10.272;2023-02-22T11:32:49;97410.38;;;21.06;37.17
47374;BME280;33123;50.118;10.272;2023-02-22T11:35:31;97408.03;;;21.05;37.16
47374;BME280;33123;50.118;10.272;2023-02-22T11:38:14;97399.22;;;20.96;37.26
47374;BME280;33123;50.118;10.272;2023-02-22T11:40:42;97393.59;;;20.89;36.76
47374;BME280;33123;50.118;10.272;2023-02-22T11:43:14;97392.44;;;20.98;37.65
47374;BME280;33123;50.118;10.272;2023-02-22T11:45:54;97391.91;;;21.14;37.62
47374;BME280;33123;50.118;10.272;2023-02-22T11:48:25;97386.28;;;20.98;36.81
47374;BME280;33123;50.118;10.272;2023-02-22T11:51:03;97385.13;;;20.69;37.38
47374;BME280;33123;50.118;10.272;2023-02-22T11:53:42;97384.50;;;20.64;37.33
47374;BME280;33123;50.118;10.272;2023-02-22T11:56:15;97357.44;;;20.30;38.18
47374;BME280;33123;50.118;10.272;2023-02-22T11:58:47;97375.69;;;20.37;37.58
47374;BME280;33123;50.118;10.272;2023-02-22T12:01:22;97372.41;;;20.23;38.33
47374;BME280;33123;50.118;10.272;2023-02-22T12:04:34;97372.72;;;20.47;37.79
47374;BME280;33123;50.118;10.272;2023-02-22T12:07:21;97369.25;;;20.21;37.56
47374;BME280;33123;50.118;10.272;2023-02-22T12:10:00;97368.03;;;20.27;37.66
47374;BME280;33123;50.118;10.272;2023-02-22T12:12:36;97365.31;;;20.36;37.22
47374;BME280;33123;50.118;10.272;2023-02-22T12:15:08;97361.41;;;20.50;37.16
47374;BME280;33123;50.118;10.272;2023-02-22T12:17:45;97359.94;;;20.62;37.10
47374;BME280;33123;50.118;10.272;2023-02-22T12:20:17;97359.63;;;20.37;37.20
47374;BME280;33123;50.118;10.272;2023-02-22T12:22:59;97355.38;;;20.53;37.27
47374;BME280;33123;50.118;10.272;2023-02-22T12:25:32;97354.13;;;20.42;38.02
47374;BME280;33123;50.118;10.272;2023-02-22T12:28:05;97349.09;;;20.32;37.57
47374;BME280;33123;50.118;10.272;2023-02-22T12:30:38;97355.75;;;20.09;38.25
47374;BME280;33123;50.118;10.272;2023-02-22T12:33:11;97350.03;;;19.58;39.25
47374;BME280;33123;50.118;10.272;2023-02-22T12:35:42;97344.88;;;19.96;38.27
47374;BME280;33123;50.118;10.272;2023-02-22T12:38:14;97345.19;;;20.03;37.94
47374;BME280;33123;50.118;10.272;2023-02-22T12:40:53;97339.38;;;20.01;37.88
47374;BME280;33123;50.118;10.272;2023-02-22T12:43:25;97346.31;;;20.02;38.01
47374;BME280;33123;50.118;10.272;2023-02-22T12:45:59;97343.00;;;20.23;38.77
47374;BME280;33123;50.118;10.272;2023-02-22T12:48:39;97341.22;;;20.44;38.11
47374;BME280;33123;50.118;10.272;2023-02-22T12:51:20;97344.69;;;20.53;36.97
47374;BME280;33123;50.118;10.272;2023-02-22T12:53:54;97337.69;;;20.70;36.51
47374;BME280;33123;50.118;10.272;2023-02-22T12:56:27;97338.44;;;20.88;37.16
47374;BME280;33123;50.118;10.272;2023-02-22T12:59:00;97337.16;;;20.94;36.22
47374;BME280;33123;50.118;10.272;2023-02-22T13:01:34;97341.31;;;20.82;36.83
47374;BME280;33123;50.118;10.272;2023-02-22T13:04:01;97332.44;;;20.82;37.83
47374;BME280;33123;50.118;10.272;2023-02-22T13:07:00;97330.16;;;20.72;37.21
47374;BME280;33123;50.118;10.272;2023-02-22T13:12:44;97332.41;;;20.35;38.13
47374;BME280;33123;50.118;10.272;2023-02-22T13:15:20;97331.31;;;20.45;39.06
47374;BME280;33123;50.118;10.272;2023-02-22T13:17:56;97330.69;;;20.48;38.43
47374;BME280;33123;50.118;10.272;2023-02-22T13:20:31;97325.16;;;20.44;38.46
47374;BME280;33123;50.118;10.272;2023-02-22T13:23:02;97308.81;;;20.20;38.63
47374;BME280;33123;50.118;10.272;2023-02-22T13:25:35;97327.13;;;20.00;39.16
47374;BME280;33123;50.118;10.272;2023-02-22T13:28:23;97323.03;;;19.94;39.92
47374;BME280;33123;50.118;10.272;2023-02-22T13:31:11;97328.69;;;19.67;40.32
47374;BME280;33123;50.118;10.272;2023-02-22T13:34:05;97317.59;;;19.42;41.03
47374;BME280;33123;50.118;10.272;2023-02-22T13:36:49;97316.63;;;19.12;40.93